Akron, CO

1:05 AM MDT on October 24, 2014 (GMT -0600)
Akron-Washington County | Change Station
CLOSE
Current Station
Airport
Location: Akron,
Elevation: 4662 ft
Nearby Weather Stations

Elev 4662 ft 40.17 °N, 103.21 °W | Updated 12 minutes ago

Clear
Clear
56 °F
Feels Like 56 °F
N
13
Wind Variable Wind from SW

Today
High -- | Low -- °F
--% Chance of Precip.
Yesterday
High -- | Low -- °F
Precip. -- in
7:13 AM 6:00 PM
New Moon, 0% visible
Pressure 29.96 in
Visibility 10.0 miles
Clouds Clear
Dew Point 36 °F
Humidity 47%
Rainfall 0.00 in
Snow Depth Not available.
UV 0 out of 12
Pollen 2.50 out of 12
Air Quality Not available.
Flu Activity Sporadic
METAR KAKO 240653Z AUTO 22011KT 10SM CLR 13/02 A3009 RMK AO2 SLP145 T01330022 402280050

More Conditions Fewer Conditions

Pressure 29.96 in
Visibility 10.0 miles
Clouds Clear
Dew Point 36 °F
Humidity 47%
Rainfall 0.00 in
Snow Depth Not available.
UV 0 out of 12
Pollen 2.50 out of 12
Air Quality Not available.
Flu Activity Sporadic
METAR KAKO 240653Z AUTO 22011KT 10SM CLR 13/02 A3009 RMK AO2 SLP145 T01330022 402280050

More Conditions Fewer Conditions

10-Day Weather Forecast

Almanac

Astronomy

Oct. 24, 2014 Rise Set
Actual Time 7:13 AM MDT 6:00 PM MDT
Civil Twilight 6:45 AM MDT 6:27 PM MDT
Nautical Twilight 6:13 AM MDT 6:59 PM MDT
Astronomical Twilight 5:42 AM MDT 7:31 PM MDT
Moon 7:54 AM MDT 6:41 PM MDT
Length of Visible Light 11h 42m
Length of Day
10h 47m
Tomorrow will be 2m 26s shorter.
New Moon, 0% of the Moon is Illuminated
Today
New Moon
Oct 30
First Quarter
Nov 6
Full
Nov 14
Last Quarter
Nov 22
New

Today's Extremes

State Highs State Lows

Community

WunderPhotos

Upload Photos

1,764,510 photos uploaded!

WunderBlogs® & News

Nearby

Snow Depth

Station Depth Elevation
University Camp 0 in 10300 ft
Copeland Lake 0 in 8600 ft
Wild Basin 0 in 9560 ft
Glen Cove 0 in 11460 ft
Echo Lake 0 in 10600 ft

Earthquake Activity

City Distance Mag. Time & Date
No recent earthquake activity has been reported nearby.
Minimum magnitude displayed is 2.5.

Coastal Water Temperatures

Place Temperature
No Stations Reporting

Nearby Weather Stations